TAF and METAR

METAR for Urgench International Airport

UTNU 181230Z 29012KT CAVOK 23/10 Q1007 R31/CLRD70 NOSIG
Report created 18. apr 14:30
wind 12 knots from WNW (290°) Clear sky Temperature 23° with dewpoint at 10° (Humidity 43.76%) Pressure 1007 hPa

TAF for Urgench International Airport

TAF UTNU 181100Z 1812/1912 29020G30KT 9999 SCT050CB BKN100 TEMPO 1812/1820 VRB29G39KT 1100 TSRA DS BKN030CB BKN100 BECMG 1904/1906 34010G20KT
Report created 18. apr 13:00

between 18. apr 14:00 - 19. apr 14:00

wind 20 knots from WNW (290°) with gusts up to 30 knots visibility > 10km scattered clouds (~50% cover) at 5000 feet of type cumulonimbus broken clouds (~75% cover) at 10000 feet

temporarily between 18. apr 14:00 - 18. apr 22:00

wind 29 knots from various directions with gusts up to 39 knots visibility 1100 meters thunderstorm and rain
Urgench International Airport in Uzbekistan at 98m

Latest 5 airports